Archimede — IXZR — position and weather

sailwx.info

Track history (hours):
 
Tides and Currents Weather Stations Pressure Air Temp Water Temp Dewpoint Dewpoint Depression Visibility Wind Speed Wind Dir Waves Ship Positions

Archimede

Last reported at 2017-Jan-21 08:33 UTC. Time now 2017-Jan-21 08:40 UTC.
Position N 38°13' E 015°38'.

; draft 3.1 m.

Type: Passenger vessel. MMSI: 247054700.

Date/timePositionNaut miles runAvg speedWind from/ knotsBaromVisibWave heightAir tempDewpointWater temp
2017-Jan-21 08:33N 38°13' E 015°38'7 7.5
2017-Jan-21 07:33N 38°08' E 015°31'7 7.5
2017-Jan-21 06:33N 38°13' E 015°38'7 6.6
2017-Jan-21 05:34N 38°08' E 015°33'0 0.2
2017-Jan-21 04:33N 38°08' E 015°32'7 6.6
2017-Jan-21 03:33N 38°13' E 015°38'7 7.4
2017-Jan-21 02:33N 38°08' E 015°31'6 6.1
2017-Jan-21 01:33N 38°13' E 015°36'1 0.8
2017-Jan-21 00:33N 38°12' E 015°37'6 5.5
2017-Jan-20 23:33N 38°08' E 015°32'7 6.8
2017-Jan-20 22:33N 38°13' E 015°38'7 7.4
2017-Jan-20 21:33N 38°08' E 015°31'7 7.5
2017-Jan-20 20:33N 38°13' E 015°38'7 7.5
2017-Jan-20 19:33N 38°08' E 015°31'7 7.5
2017-Jan-20 18:33N 38°13' E 015°38'6 6.4
2017-Jan-20 17:33N 38°09' E 015°33'6 6.2
2017-Jan-20 16:33N 38°13' E 015°38'6 6.1
2017-Jan-20 15:33N 38°09' E 015°33'6 5.6
2017-Jan-20 14:33N 38°13' E 015°37'3 3.3
2017-Jan-20 13:33N 38°11' E 015°34'2 2.4
2017-Jan-20 12:33N 38°09' E 015°33'6 6.3
2017-Jan-20 11:33N 38°13' E 015°38'8 7.5
2017-Jan-20 10:33N 38°08' E 015°31'3 2.9
2017-Jan-20 09:33N 38°10' E 015°34'3 2.6
2017-Jan-20 08:33N 38°11' E 015°37'5 5.5
2017-Jan-20 07:33N 38°08' E 015°31'7 7.5
2017-Jan-20 06:33N 38°13' E 015°38'7 7.0
2017-Jan-20 05:33N 38°08' E 015°32'2 1.7
2017-Jan-20 04:33N 38°09' E 015°34'5 5.4
2017-Jan-20 03:33N 38°13' E 015°38'8 7.5
2017-Jan-20 02:33N 38°08' E 015°31'6 6.4
2017-Jan-20 01:33N 38°13' E 015°37'3 3.0
2017-Jan-20 00:33N 38°10' E 015°37'2 1.7
2017-Jan-19 23:33N 38°10' E 015°35'3 3.0
2017-Jan-19 22:33N 38°12' E 015°37'6 6.3
2017-Jan-19 21:33N 38°08' E 015°31'8 7.5
2017-Jan-19 20:33N 38°13' E 015°38'8 7.5
2017-Jan-19 19:33N 38°08' E 015°31'8 7.5
2017-Jan-19 18:33N 38°13' E 015°38'7 6.6
2017-Jan-19 17:33N 38°08' E 015°33'6 5.8
2017-Jan-19 16:33N 38°13' E 015°37'5 5.1
2017-Jan-19 15:33N 38°08' E 015°34'4 3.9
2017-Jan-19 14:33N 38°12' E 015°36'2 2.4
2017-Jan-19 13:33N 38°10' E 015°36'4 3.9
2017-Jan-19 12:33N 38°08' E 015°32'7 7.0
2017-Jan-19 11:33N 38°13' E 015°38'8 7.5
2017-Jan-19 10:33N 38°08' E 015°31'7 7.1
2017-Jan-19 09:33N 38°14' E 015°36'2 1.5
2017-Jan-19 08:33N 38°12' E 015°36'6 5.9
2017-Jan-19 07:33N 38°08' E 015°31'7 7.5
2017-Jan-19 06:33N 38°13' E 015°38'7 7.5
2017-Jan-19 05:33N 38°08' E 015°31'6 5.7
2017-Jan-19 04:33N 38°13' E 015°35'2 1.6
2017-Jan-19 03:34N 38°13' E 015°37'7 6.5
2017-Jan-19 02:33N 38°08' E 015°31'7 7.0
2017-Jan-19 01:33N 38°13' E 015°37'4 3.7
2017-Jan-19 00:33N 38°10' E 015°36'1 1.4
2017-Jan-18 23:33N 38°11' E 015°35'1 1.2
2017-Jan-18 22:33N 38°11' E 015°36'4 3.8
2017-Jan-18 21:33N 38°09' E 015°33'6 6.3
2017-Jan-18 20:33N 38°13' E 015°38'8 7.5
2017-Jan-18 19:33N 38°08' E 015°31'8 7.5
2017-Jan-18 18:33N 38°13' E 015°38'5 5.4
2017-Jan-18 17:33N 38°10' E 015°33'3 2.7
2017-Jan-18 16:33N 38°11' E 015°36'2 1.6
2017-Jan-18 15:33N 38°11' E 015°34'0 0.5
2017-Jan-18 14:33N 38°10' E 015°34'3 3.3
2017-Jan-18 13:33N 38°13' E 015°37'6 6.0
2017-Jan-18 12:33N 38°08' E 015°32'7 7.0
2017-Jan-18 11:33N 38°13' E 015°38'7 7.4
2017-Jan-18 10:32N 38°08' E 015°31'6 6.5
2017-Jan-18 09:33N 38°13' E 015°37'1 1.2
2017-Jan-18 08:33N 38°13' E 015°38'7 7.3
2017-Jan-18 07:32N 38°08' E 015°31'7 7.7
2017-Jan-18 06:33N 38°13' E 015°38'7 6.6
2017-Jan-18 05:33N 38°08' E 015°32'1 1.0
2017-Jan-18 04:33N 38°09' E 015°33'6 5.7
2017-Jan-18 03:33N 38°13' E 015°38'7 7.5
2017-Jan-18 02:33N 38°08' E 015°31'7 7.5
2017-Jan-18 01:33N 38°14' E 015°38'4 3.6
2017-Jan-18 00:33N 38°10' E 015°36'2 2.0
2017-Jan-17 23:33N 38°10' E 015°34'4 4.1
2017-Jan-17 22:33N 38°13' E 015°37'6 6.3
2017-Jan-17 21:33N 38°08' E 015°32'7 7.1
2017-Jan-17 20:33N 38°13' E 015°38'8 7.5
2017-Jan-17 19:33N 38°08' E 015°31'6 6.2
2017-Jan-17 18:33N 38°13' E 015°36'5 4.8
2017-Jan-17 17:33N 38°09' E 015°33'3 3.5
2017-Jan-17 16:33N 38°12' E 015°35'2 1.8
2017-Jan-17 15:33N 38°10' E 015°34'2 2.5
2017-Jan-17 14:33N 38°08' E 015°32'7 6.6
2017-Jan-17 13:33N 38°13' E 015°38'6 6.1
2017-Jan-17 12:33N 38°09' E 015°32'6 6.5
2017-Jan-17 11:33N 38°13' E 015°38'8 7.5
2017-Jan-17 10:33N 38°08' E 015°31'6 5.9
2017-Jan-17 09:33N 38°12' E 015°36'1 1.4
2017-Jan-17 08:33N 38°13' E 015°38'7 7.2
2017-Jan-17 07:33N 38°08' E 015°31'7 7.5
2017-Jan-17 06:33N 38°13' E 015°38'6 6.5
2017-Jan-17 05:33N 38°09' E 015°32'2 2.4
2017-Jan-17 04:33N 38°11' E 015°34'3 3.3
2017-Jan-17 03:33N 38°13' E 015°37'7 6.6
2017-Jan-17 02:33N 38°08' E 015°31'7 6.6
2017-Jan-17 01:33N 38°13' E 015°37'2 2.2
2017-Jan-17 00:33N 38°11' E 015°37'3 3.4
2017-Jan-16 23:33N 38°09' E 015°33'5 4.5
2017-Jan-16 22:33N 38°12' E 015°37'6 6.0
2017-Jan-16 21:33N 38°08' E 015°32'7 7.4
2017-Jan-16 20:33N 38°13' E 015°38'8 7.5
2017-Jan-16 19:33N 38°08' E 015°31'7 7.3
2017-Jan-16 18:33N 38°13' E 015°37'6 6.1
2017-Jan-16 17:33N 38°08' E 015°33'5 4.8
2017-Jan-16 16:33N 38°13' E 015°36'3 3.4
2017-Jan-16 15:33N 38°09' E 015°36'2 1.7
2017-Jan-16 14:33N 38°10' E 015°34'4 3.6
2017-Jan-16 13:33N 38°13' E 015°37'7 6.6
2017-Jan-16 12:33N 38°08' E 015°32'7 7.4
2017-Jan-16 11:33N 38°13' E 015°38'7 7.5
2017-Jan-16 10:33N 38°08' E 015°31'5 5.2
2017-Jan-16 09:33N 38°12' E 015°36'1 1.2
2017-Jan-16 08:33N 38°12' E 015°37'6 6.1
2017-Jan-16 07:33N 38°08' E 015°31'7 7.5
2017-Jan-16 06:33N 38°13' E 015°38'7 6.7
2017-Jan-16 05:33N 38°08' E 015°32'3 2.9
2017-Jan-16 04:33N 38°10' E 015°35'3 2.8
2017-Jan-16 03:33N 38°12' E 015°37'6 6.4
2017-Jan-16 02:33N 38°08' E 015°31'2 2.3
2017-Jan-16 01:33N 38°10' E 015°33'5 5.3
2017-Jan-16 00:33N 38°13' E 015°38'3 3.4
2017-Jan-15 23:33N 38°13' E 015°34'0 0.0
2017-Jan-15 22:33N 38°13' E 015°34'0 0.0
2017-Jan-15 21:33N 38°13' E 015°34'3 3.1
2017-Jan-15 20:33N 38°14' E 015°37'7 7.5
2017-Jan-15 19:33N 38°08' E 015°31'8 7.5
2017-Jan-15 18:33N 38°13' E 015°38'7 7.4
2017-Jan-15 17:33N 38°08' E 015°31'7 7.6
2017-Jan-15 16:33N 38°13' E 015°38'7 7.1
2017-Jan-15 15:33N 38°08' E 015°32'6 5.9
2017-Jan-15 14:33N 38°13' E 015°36'4 4.1
2017-Jan-15 13:33N 38°09' E 015°36'3 2.6
2017-Jan-15 12:33N 38°09' E 015°33'6 5.8
2017-Jan-15 11:33N 38°13' E 015°37'7 7.1
2017-Jan-15 10:33N 38°08' E 015°31'5 5.3
2017-Jan-15 09:33N 38°12' E 015°36'2 2.3
2017-Jan-15 08:33N 38°13' E 015°38'0 0.0
2017-Jan-15 07:33N 38°13' E 015°38'0 0.0
2017-Jan-15 06:33N 38°13' E 015°38'7 7.1
2017-Jan-15 05:33N 38°08' E 015°32'2 2.0
2017-Jan-15 04:33N 38°10' E 015°34'4 4.1
2017-Jan-15 03:34N 38°13' E 015°37'7 6.5
2017-Jan-15 02:33N 38°08' E 015°31'7 6.9
2017-Jan-15 01:34N 38°13' E 015°37'1 1.4
2017-Jan-15 00:33N 38°12' E 015°37'5 5.0
2017-Jan-14 23:32N 38°09' E 015°32'6 5.9
2017-Jan-14 22:34N 38°13' E 015°37'6 6.4
2017-Jan-14 21:33N 38°08' E 015°32'7 7.1
2017-Jan-14 20:33N 38°13' E 015°38'8 7.5
2017-Jan-14 19:33N 38°08' E 015°31'7 7.5
2017-Jan-14 18:33N 38°14' E 015°38'7 7.2
2017-Jan-14 17:34N 38°08' E 015°32'7 6.8
2017-Jan-14 16:33N 38°13' E 015°37'6 5.6
2017-Jan-14 15:34N 38°08' E 015°34'4 4.3
2017-Jan-14 14:34N 38°12' E 015°36'3 3.2
2017-Jan-14 13:33N 38°09' E 015°36'4 3.8
2017-Jan-14 12:34N 38°08' E 015°31'7 7.5
2017-Jan-14 11:33N 38°13' E 015°38'7 7.5
2017-Jan-14 10:33N 38°08' E 015°31'4 4.0
2017-Jan-14 09:33N 38°11' E 015°35'2 1.6
2017-Jan-14 08:31N 38°12' E 015°34'0 0.0
2017-Jan-14 07:33N 38°12' E 015°34'3 3.0
2017-Jan-14 06:33N 38°13' E 015°37'7 7.1
2017-Jan-14 05:32N 38°08' E 015°31'3 3.2
2017-Jan-14 04:33N 38°10' E 015°34'3 2.8
2017-Jan-14 03:33N 38°12' E 015°37'5 1.3
2017-Jan-13 23:33N 38°08' E 015°32'7 6.6
2017-Jan-13 22:33N 38°13' E 015°38'7 7.5
2017-Jan-13 21:33N 38°08' E 015°31'7 7.5
2017-Jan-13 20:34N 38°13' E 015°38'8 7.5
2017-Jan-13 19:33N 38°08' E 015°31'6 4.0
2017-Jan-13 18:06N 38°11' E 015°37'610.4
2017-Jan-13 17:33N 38°08' E 015°32'7 7.3
2017-Jan-13 16:34N 38°13' E 015°38'5 5.2
2017-Jan-13 15:33N 38°09' E 015°35'3 3.3
2017-Jan-13 14:34N 38°12' E 015°36'1 1.4
2017-Jan-13 13:34N 38°12' E 015°37'6 6.2
2017-Jan-13 12:34N 38°08' E 015°31'8 7.5
2017-Jan-13 11:33N 38°13' E 015°38'7 7.5
2017-Jan-13 10:33N 38°08' E 015°31'5 5.2
2017-Jan-13 09:33N 38°12' E 015°36'1 1.3
2017-Jan-13 08:33N 38°12' E 015°37'6 6.3
2017-Jan-13 07:33N 38°08' E 015°31'7 7.5
2017-Jan-13 06:33N 38°13' E 015°38'7 7.2
2017-Jan-13 05:33N 38°08' E 015°32'2 1.8
2017-Jan-13 04:33N 38°09' E 015°34'5 5.4
2017-Jan-13 03:33N 38°13' E 015°38'7 7.4
2017-Jan-13 02:33N 38°08' E 015°31'7 6.7
2017-Jan-13 01:33N 38°13' E 015°37'2 2.2
2017-Jan-13 00:33N 38°11' E 015°37'4 4.2
2017-Jan-12 23:33N 38°09' E 015°33'6 5.7
2017-Jan-12 22:33N 38°13' E 015°37'7 6.9
2017-Jan-12 21:33N 38°08' E 015°31'8 7.5
2017-Jan-12 20:34N 38°13' E 015°38'8 7.5
2017-Jan-12 19:34N 38°08' E 015°31'7 7.3
2017-Jan-12 18:34N 38°13' E 015°37'7 6.6
2017-Jan-12 17:34N 38°08' E 015°32'5 5.4
2017-Jan-12 16:34N 38°13' E 015°36'4 3.8
2017-Jan-12 15:33N 38°09' E 015°36'3 2.6
2017-Jan-12 14:34N 38°11' E 015°35'2 1.5
2017-Jan-12 13:34N 38°10' E 015°36'3 3.0
2017-Jan-12 12:33N 38°09' E 015°33'6 6.1
2017-Jan-12 11:34N 38°13' E 015°38'8 7.4
2017-Jan-12 10:33N 38°08' E 015°31'7 7.1
2017-Jan-12 09:33N 38°13' E 015°37'1 0.6
2017-Jan-12 08:34N 38°13' E 015°38'7 7.5
2017-Jan-12 07:33N 38°08' E 015°31'7 7.5
2017-Jan-12 06:34N 38°13' E 015°38'7 7.1
2017-Jan-12 05:34N 38°08' E 015°32'2 2.1
2017-Jan-12 04:34N 38°10' E 015°34'3 3.2
2017-Jan-12 03:33N 38°11' E 015°37'6 5.6
2017-Jan-12 02:33N 38°08' E 015°31'7 7.2
2017-Jan-12 01:34N 38°13' E 015°37'4 3.6
2017-Jan-12 00:34N 38°10' E 015°36'3 2.7
2017-Jan-11 23:34N 38°09' E 015°33'4 4.4
2017-Jan-11 22:34N 38°12' E 015°37'6 5.8
2017-Jan-11 21:33N 38°08' E 015°32'7 7.3
2017-Jan-11 20:34N 38°13' E 015°38'8 7.5
2017-Jan-11 19:34N 38°08' E 015°31'7 7.2
2017-Jan-11 18:34N 38°13' E 015°37'7 6.9
2017-Jan-11 17:33N 38°08' E 015°32'6 6.5
2017-Jan-11 16:34N 38°13' E 015°37'5 5.1
2017-Jan-11 15:34N 38°09' E 015°34'4 3.9
2017-Jan-11 14:34N 38°12' E 015°36'1 1.2
2017-Jan-11 13:34N 38°12' E 015°37'6 5.6
2017-Jan-11 12:33N 38°08' E 015°32'7 7.4
2017-Jan-11 11:34N 38°13' E 015°38'7 7.5
2017-Jan-11 10:33N 38°08' E 015°31'5 4.8
2017-Jan-11 09:34N 38°12' E 015°35'2 2.3
2017-Jan-11 08:34N 38°13' E 015°38'  
Track history (hours):
 
Tides and Currents Weather Stations Pressure Air Temp Water Temp Dewpoint Dewpoint Depression Visibility Wind Speed Wind Dir Waves Ship Positions

Archimede

Last reported at 2017-Jan-21 08:33 UTC. Time now 2017-Jan-21 08:40 UTC.
Position N 38°13' E 015°38'.

; draft 3.1 m.

Type: Passenger vessel. MMSI: 247054700.

Date/timePositionNaut miles runAvg speedWind from/ knotsBaromVisibWave heightAir tempDewpointWater temp
2017-Jan-21 08:33N 38°13' E 015°38'7 7.5
2017-Jan-21 07:33N 38°08' E 015°31'7 7.5
2017-Jan-21 06:33N 38°13' E 015°38'7 6.6
2017-Jan-21 05:34N 38°08' E 015°33'0 0.2
2017-Jan-21 04:33N 38°08' E 015°32'7 6.6
2017-Jan-21 03:33N 38°13' E 015°38'7 7.4
2017-Jan-21 02:33N 38°08' E 015°31'6 6.1
2017-Jan-21 01:33N 38°13' E 015°36'1 0.8
2017-Jan-21 00:33N 38°12' E 015°37'6 5.5
2017-Jan-20 23:33N 38°08' E 015°32'7 6.8
2017-Jan-20 22:33N 38°13' E 015°38'7 7.4
2017-Jan-20 21:33N 38°08' E 015°31'7 7.5
2017-Jan-20 20:33N 38°13' E 015°38'7 7.5
2017-Jan-20 19:33N 38°08' E 015°31'7 7.5
2017-Jan-20 18:33N 38°13' E 015°38'6 6.4
2017-Jan-20 17:33N 38°09' E 015°33'6 6.2
2017-Jan-20 16:33N 38°13' E 015°38'6 6.1
2017-Jan-20 15:33N 38°09' E 015°33'6 5.6
2017-Jan-20 14:33N 38°13' E 015°37'3 3.3
2017-Jan-20 13:33N 38°11' E 015°34'2 2.4
2017-Jan-20 12:33N 38°09' E 015°33'6 6.3
2017-Jan-20 11:33N 38°13' E 015°38'8 7.5
2017-Jan-20 10:33N 38°08' E 015°31'3 2.9
2017-Jan-20 09:33N 38°10' E 015°34'3 2.6
2017-Jan-20 08:33N 38°11' E 015°37'5 5.5
2017-Jan-20 07:33N 38°08' E 015°31'7 7.5
2017-Jan-20 06:33N 38°13' E 015°38'7 7.0
2017-Jan-20 05:33N 38°08' E 015°32'2 1.7
2017-Jan-20 04:33N 38°09' E 015°34'5 5.4
2017-Jan-20 03:33N 38°13' E 015°38'8 7.5
2017-Jan-20 02:33N 38°08' E 015°31'6 6.4
2017-Jan-20 01:33N 38°13' E 015°37'3 3.0
2017-Jan-20 00:33N 38°10' E 015°37'2 1.7
2017-Jan-19 23:33N 38°10' E 015°35'3 3.0
2017-Jan-19 22:33N 38°12' E 015°37'6 6.3
2017-Jan-19 21:33N 38°08' E 015°31'8 7.5
2017-Jan-19 20:33N 38°13' E 015°38'8 7.5
2017-Jan-19 19:33N 38°08' E 015°31'8 7.5
2017-Jan-19 18:33N 38°13' E 015°38'7 6.6
2017-Jan-19 17:33N 38°08' E 015°33'6 5.8
2017-Jan-19 16:33N 38°13' E 015°37'5 5.1
2017-Jan-19 15:33N 38°08' E 015°34'4 3.9
2017-Jan-19 14:33N 38°12' E 015°36'2 2.4
2017-Jan-19 13:33N 38°10' E 015°36'4 3.9
2017-Jan-19 12:33N 38°08' E 015°32'7 7.0
2017-Jan-19 11:33N 38°13' E 015°38'8 7.5
2017-Jan-19 10:33N 38°08' E 015°31'7 7.1
2017-Jan-19 09:33N 38°14' E 015°36'2 1.5
2017-Jan-19 08:33N 38°12' E 015°36'6 5.9
2017-Jan-19 07:33N 38°08' E 015°31'7 7.5
2017-Jan-19 06:33N 38°13' E 015°38'7 7.5
2017-Jan-19 05:33N 38°08' E 015°31'6 5.7
2017-Jan-19 04:33N 38°13' E 015°35'2 1.6
2017-Jan-19 03:34N 38°13' E 015°37'7 6.5
2017-Jan-19 02:33N 38°08' E 015°31'7 7.0
2017-Jan-19 01:33N 38°13' E 015°37'4 3.7
2017-Jan-19 00:33N 38°10' E 015°36'1 1.4
2017-Jan-18 23:33N 38°11' E 015°35'1 1.2
2017-Jan-18 22:33N 38°11' E 015°36'4 3.8
2017-Jan-18 21:33N 38°09' E 015°33'6 6.3
2017-Jan-18 20:33N 38°13' E 015°38'8 7.5
2017-Jan-18 19:33N 38°08' E 015°31'8 7.5
2017-Jan-18 18:33N 38°13' E 015°38'5 5.4
2017-Jan-18 17:33N 38°10' E 015°33'3 2.7
2017-Jan-18 16:33N 38°11' E 015°36'2 1.6
2017-Jan-18 15:33N 38°11' E 015°34'0 0.5
2017-Jan-18 14:33N 38°10' E 015°34'3 3.3
2017-Jan-18 13:33N 38°13' E 015°37'6 6.0
2017-Jan-18 12:33N 38°08' E 015°32'7 7.0
2017-Jan-18 11:33N 38°13' E 015°38'7 7.4
2017-Jan-18 10:32N 38°08' E 015°31'6 6.5
2017-Jan-18 09:33N 38°13' E 015°37'1 1.2
2017-Jan-18 08:33N 38°13' E 015°38'7 7.3
2017-Jan-18 07:32N 38°08' E 015°31'7 7.7
2017-Jan-18 06:33N 38°13' E 015°38'7 6.6
2017-Jan-18 05:33N 38°08' E 015°32'1 1.0
2017-Jan-18 04:33N 38°09' E 015°33'6 5.7
2017-Jan-18 03:33N 38°13' E 015°38'7 7.5
2017-Jan-18 02:33N 38°08' E 015°31'7 7.5
2017-Jan-18 01:33N 38°14' E 015°38'4 3.6
2017-Jan-18 00:33N 38°10' E 015°36'2 2.0
2017-Jan-17 23:33N 38°10' E 015°34'4 4.1
2017-Jan-17 22:33N 38°13' E 015°37'6 6.3
2017-Jan-17 21:33N 38°08' E 015°32'7 7.1
2017-Jan-17 20:33N 38°13' E 015°38'8 7.5
2017-Jan-17 19:33N 38°08' E 015°31'6 6.2
2017-Jan-17 18:33N 38°13' E 015°36'5 4.8
2017-Jan-17 17:33N 38°09' E 015°33'3 3.5
2017-Jan-17 16:33N 38°12' E 015°35'2 1.8
2017-Jan-17 15:33N 38°10' E 015°34'2 2.5
2017-Jan-17 14:33N 38°08' E 015°32'7 6.6
2017-Jan-17 13:33N 38°13' E 015°38'6 6.1
2017-Jan-17 12:33N 38°09' E 015°32'6 6.5
2017-Jan-17 11:33N 38°13' E 015°38'8 7.5
2017-Jan-17 10:33N 38°08' E 015°31'6 5.9
2017-Jan-17 09:33N 38°12' E 015°36'1 1.4
2017-Jan-17 08:33N 38°13' E 015°38'7 7.2
2017-Jan-17 07:33N 38°08' E 015°31'7 7.5
2017-Jan-17 06:33N 38°13' E 015°38'6 6.5
2017-Jan-17 05:33N 38°09' E 015°32'2 2.4
2017-Jan-17 04:33N 38°11' E 015°34'3 3.3
2017-Jan-17 03:33N 38°13' E 015°37'7 6.6
2017-Jan-17 02:33N 38°08' E 015°31'7 6.6
2017-Jan-17 01:33N 38°13' E 015°37'2 2.2
2017-Jan-17 00:33N 38°11' E 015°37'3 3.4
2017-Jan-16 23:33N 38°09' E 015°33'5 4.5
2017-Jan-16 22:33N 38°12' E 015°37'6 6.0
2017-Jan-16 21:33N 38°08' E 015°32'7 7.4
2017-Jan-16 20:33N 38°13' E 015°38'8 7.5
2017-Jan-16 19:33N 38°08' E 015°31'7 7.3
2017-Jan-16 18:33N 38°13' E 015°37'6 6.1
2017-Jan-16 17:33N 38°08' E 015°33'5 4.8
2017-Jan-16 16:33N 38°13' E 015°36'3 3.4
2017-Jan-16 15:33N 38°09' E 015°36'2 1.7
2017-Jan-16 14:33N 38°10' E 015°34'4 3.6
2017-Jan-16 13:33N 38°13' E 015°37'7 6.6
2017-Jan-16 12:33N 38°08' E 015°32'7 7.4
2017-Jan-16 11:33N 38°13' E 015°38'7 7.5
2017-Jan-16 10:33N 38°08' E 015°31'5 5.2
2017-Jan-16 09:33N 38°12' E 015°36'1 1.2
2017-Jan-16 08:33N 38°12' E 015°37'6 6.1
2017-Jan-16 07:33N 38°08' E 015°31'7 7.5
2017-Jan-16 06:33N 38°13' E 015°38'7 6.7
2017-Jan-16 05:33N 38°08' E 015°32'3 2.9
2017-Jan-16 04:33N 38°10' E 015°35'3 2.8
2017-Jan-16 03:33N 38°12' E 015°37'6 6.4
2017-Jan-16 02:33N 38°08' E 015°31'2 2.3
2017-Jan-16 01:33N 38°10' E 015°33'5 5.3
2017-Jan-16 00:33N 38°13' E 015°38'3 3.4
2017-Jan-15 23:33N 38°13' E 015°34'0 0.0
2017-Jan-15 22:33N 38°13' E 015°34'0 0.0
2017-Jan-15 21:33N 38°13' E 015°34'3 3.1
2017-Jan-15 20:33N 38°14' E 015°37'7 7.5
2017-Jan-15 19:33N 38°08' E 015°31'8 7.5
2017-Jan-15 18:33N 38°13' E 015°38'7 7.4
2017-Jan-15 17:33N 38°08' E 015°31'7 7.6
2017-Jan-15 16:33N 38°13' E 015°38'7 7.1
2017-Jan-15 15:33N 38°08' E 015°32'6 5.9
2017-Jan-15 14:33N 38°13' E 015°36'4 4.1
2017-Jan-15 13:33N 38°09' E 015°36'3 2.6
2017-Jan-15 12:33N 38°09' E 015°33'6 5.8
2017-Jan-15 11:33N 38°13' E 015°37'7 7.1
2017-Jan-15 10:33N 38°08' E 015°31'5 5.3
2017-Jan-15 09:33N 38°12' E 015°36'2 2.3
2017-Jan-15 08:33N 38°13' E 015°38'0 0.0
2017-Jan-15 07:33N 38°13' E 015°38'0 0.0
2017-Jan-15 06:33N 38°13' E 015°38'7 7.1
2017-Jan-15 05:33N 38°08' E 015°32'2 2.0
2017-Jan-15 04:33N 38°10' E 015°34'4 4.1
2017-Jan-15 03:34N 38°13' E 015°37'7 6.5
2017-Jan-15 02:33N 38°08' E 015°31'7 6.9
2017-Jan-15 01:34N 38°13' E 015°37'1 1.4
2017-Jan-15 00:33N 38°12' E 015°37'5 5.0
2017-Jan-14 23:32N 38°09' E 015°32'6 5.9
2017-Jan-14 22:34N 38°13' E 015°37'6 6.4
2017-Jan-14 21:33N 38°08' E 015°32'7 7.1
2017-Jan-14 20:33N 38°13' E 015°38'8 7.5
2017-Jan-14 19:33N 38°08' E 015°31'7 7.5
2017-Jan-14 18:33N 38°14' E 015°38'7 7.2
2017-Jan-14 17:34N 38°08' E 015°32'7 6.8
2017-Jan-14 16:33N 38°13' E 015°37'6 5.6
2017-Jan-14 15:34N 38°08' E 015°34'4 4.3
2017-Jan-14 14:34N 38°12' E 015°36'3 3.2
2017-Jan-14 13:33N 38°09' E 015°36'4 3.8
2017-Jan-14 12:34N 38°08' E 015°31'7 7.5
2017-Jan-14 11:33N 38°13' E 015°38'7 7.5
2017-Jan-14 10:33N 38°08' E 015°31'4 4.0
2017-Jan-14 09:33N 38°11' E 015°35'2 1.6
2017-Jan-14 08:31N 38°12' E 015°34'0 0.0
2017-Jan-14 07:33N 38°12' E 015°34'3 3.0
2017-Jan-14 06:33N 38°13' E 015°37'7 7.1
2017-Jan-14 05:32N 38°08' E 015°31'3 3.2
2017-Jan-14 04:33N 38°10' E 015°34'3 2.8
2017-Jan-14 03:33N 38°12' E 015°37'5 1.3
2017-Jan-13 23:33N 38°08' E 015°32'7 6.6
2017-Jan-13 22:33N 38°13' E 015°38'7 7.5
2017-Jan-13 21:33N 38°08' E 015°31'7 7.5
2017-Jan-13 20:34N 38°13' E 015°38'8 7.5
2017-Jan-13 19:33N 38°08' E 015°31'6 4.0
2017-Jan-13 18:06N 38°11' E 015°37'610.4
2017-Jan-13 17:33N 38°08' E 015°32'7 7.3
2017-Jan-13 16:34N 38°13' E 015°38'5 5.2
2017-Jan-13 15:33N 38°09' E 015°35'3 3.3
2017-Jan-13 14:34N 38°12' E 015°36'1 1.4
2017-Jan-13 13:34N 38°12' E 015°37'6 6.2
2017-Jan-13 12:34N 38°08' E 015°31'8 7.5
2017-Jan-13 11:33N 38°13' E 015°38'7 7.5
2017-Jan-13 10:33N 38°08' E 015°31'5 5.2
2017-Jan-13 09:33N 38°12' E 015°36'1 1.3
2017-Jan-13 08:33N 38°12' E 015°37'6 6.3
2017-Jan-13 07:33N 38°08' E 015°31'7 7.5
2017-Jan-13 06:33N 38°13' E 015°38'7 7.2
2017-Jan-13 05:33N 38°08' E 015°32'2 1.8
2017-Jan-13 04:33N 38°09' E 015°34'5 5.4
2017-Jan-13 03:33N 38°13' E 015°38'7 7.4
2017-Jan-13 02:33N 38°08' E 015°31'7 6.7
2017-Jan-13 01:33N 38°13' E 015°37'2 2.2
2017-Jan-13 00:33N 38°11' E 015°37'4 4.2
2017-Jan-12 23:33N 38°09' E 015°33'6 5.7
2017-Jan-12 22:33N 38°13' E 015°37'7 6.9
2017-Jan-12 21:33N 38°08' E 015°31'8 7.5
2017-Jan-12 20:34N 38°13' E 015°38'8 7.5
2017-Jan-12 19:34N 38°08' E 015°31'7 7.3
2017-Jan-12 18:34N 38°13' E 015°37'7 6.6
2017-Jan-12 17:34N 38°08' E 015°32'5 5.4
2017-Jan-12 16:34N 38°13' E 015°36'4 3.8
2017-Jan-12 15:33N 38°09' E 015°36'3 2.6
2017-Jan-12 14:34N 38°11' E 015°35'2 1.5
2017-Jan-12 13:34N 38°10' E 015°36'3 3.0
2017-Jan-12 12:33N 38°09' E 015°33'6 6.1
2017-Jan-12 11:34N 38°13' E 015°38'8 7.4
2017-Jan-12 10:33N 38°08' E 015°31'7 7.1
2017-Jan-12 09:33N 38°13' E 015°37'1 0.6
2017-Jan-12 08:34N 38°13' E 015°38'7 7.5
2017-Jan-12 07:33N 38°08' E 015°31'7 7.5
2017-Jan-12 06:34N 38°13' E 015°38'7 7.1
2017-Jan-12 05:34N 38°08' E 015°32'2 2.1
2017-Jan-12 04:34N 38°10' E 015°34'3 3.2
2017-Jan-12 03:33N 38°11' E 015°37'6 5.6
2017-Jan-12 02:33N 38°08' E 015°31'7 7.2
2017-Jan-12 01:34N 38°13' E 015°37'4 3.6
2017-Jan-12 00:34N 38°10' E 015°36'3 2.7
2017-Jan-11 23:34N 38°09' E 015°33'4 4.4
2017-Jan-11 22:34N 38°12' E 015°37'6 5.8
2017-Jan-11 21:33N 38°08' E 015°32'7 7.3
2017-Jan-11 20:34N 38°13' E 015°38'8 7.5
2017-Jan-11 19:34N 38°08' E 015°31'7 7.2
2017-Jan-11 18:34N 38°13' E 015°37'7 6.9
2017-Jan-11 17:33N 38°08' E 015°32'6 6.5
2017-Jan-11 16:34N 38°13' E 015°37'5 5.1
2017-Jan-11 15:34N 38°09' E 015°34'4 3.9
2017-Jan-11 14:34N 38°12' E 015°36'1 1.2
2017-Jan-11 13:34N 38°12' E 015°37'6 5.6
2017-Jan-11 12:33N 38°08' E 015°32'7 7.4
2017-Jan-11 11:34N 38°13' E 015°38'7 7.5
2017-Jan-11 10:33N 38°08' E 015°31'5 4.8
2017-Jan-11 09:34N 38°12' E 015°35'2 2.3
2017-Jan-11 08:34N 38°13' E 015°38'  

Dump ship's entire track history